sensor_id;sensor_type;location;lat;lon;timestamp;pressure;altitude;pressure_sealevel;temperature;humidity
75247;BME280;63844;50.042;19.224;2023-09-12T00:01:04;100291.62;;;15.89;85.45
75247;BME280;63844;50.042;19.224;2023-09-12T00:02:44;100290.54;;;15.86;85.62
75247;BME280;63844;50.042;19.224;2023-09-12T00:04:32;100288.34;;;15.84;85.60
75247;BME280;63844;50.042;19.224;2023-09-12T00:06:09;100287.23;;;15.82;85.97
75247;BME280;63844;50.042;19.224;2023-09-12T00:07:46;100286.54;;;15.82;85.94
75247;BME280;63844;50.042;19.224;2023-09-12T00:09:23;100289.01;;;15.82;85.82
75247;BME280;63844;50.042;19.224;2023-09-12T00:11:06;100285.00;;;15.81;85.88
75247;BME280;63844;50.042;19.224;2023-09-12T00:12:46;100284.05;;;15.79;86.06
75247;BME280;63844;50.042;19.224;2023-09-12T00:14:21;100283.43;;;15.78;85.85
75247;BME280;63844;50.042;19.224;2023-09-12T00:15:58;100282.15;;;15.75;85.40
75247;BME280;63844;50.042;19.224;2023-09-12T00:17:43;100279.42;;;15.74;86.00
75247;BME280;63844;50.042;19.224;2023-09-12T00:19:22;100281.50;;;15.72;86.33
75247;BME280;63844;50.042;19.224;2023-09-12T00:21:00;100279.34;;;15.69;86.07
75247;BME280;63844;50.042;19.224;2023-09-12T00:22:44;100281.52;;;15.68;86.03
75247;BME280;63844;50.042;19.224;2023-09-12T00:24:20;100283.14;;;15.69;85.86
75247;BME280;63844;50.042;19.224;2023-09-12T00:25:56;100284.96;;;15.68;86.24
75247;BME280;63844;50.042;19.224;2023-09-12T00:27:33;100287.33;;;15.67;86.38
75247;BME280;63844;50.042;19.224;2023-09-12T00:29:12;100283.91;;;15.65;86.20
75247;BME280;63844;50.042;19.224;2023-09-12T00:32:15;100282.48;;;15.62;87.03
75247;BME280;63844;50.042;19.224;2023-09-12T00:34:22;100280.73;;;15.62;86.88
75247;BME280;63844;50.042;19.224;2023-09-12T00:36:17;100284.25;;;15.62;86.44
75247;BME280;63844;50.042;19.224;2023-09-12T00:37:52;100279.58;;;15.63;86.44
75247;BME280;63844;50.042;19.224;2023-09-12T00:39:28;100279.66;;;15.62;86.61
75247;BME280;63844;50.042;19.224;2023-09-12T00:41:11;100282.85;;;15.62;86.61
75247;BME280;63844;50.042;19.224;2023-09-12T00:42:49;100283.02;;;15.62;87.00
75247;BME280;63844;50.042;19.224;2023-09-12T00:46:01;100287.44;;;15.63;86.28
75247;BME280;63844;50.042;19.224;2023-09-12T00:47:36;100287.05;;;15.63;86.50
75247;BME280;63844;50.042;19.224;2023-09-12T00:49:12;100293.86;;;15.63;86.59
75247;BME280;63844;50.042;19.224;2023-09-12T00:50:50;100294.09;;;15.62;86.55
75247;BME280;63844;50.042;19.224;2023-09-12T00:52:27;100296.98;;;15.61;86.61
75247;BME280;63844;50.042;19.224;2023-09-12T00:54:04;100294.54;;;15.61;86.42
75247;BME280;63844;50.042;19.224;2023-09-12T00:55:55;100296.38;;;15.60;86.09
75247;BME280;63844;50.042;19.224;2023-09-12T00:57:33;100295.17;;;15.59;86.54
75247;BME280;63844;50.042;19.224;2023-09-12T00:59:10;100297.08;;;15.57;86.62
75247;BME280;63844;50.042;19.224;2023-09-12T01:00:48;100295.83;;;15.55;86.58
75247;BME280;63844;50.042;19.224;2023-09-12T01:02:24;100291.90;;;15.52;86.65
75247;BME280;63844;50.042;19.224;2023-09-12T01:04:01;100289.58;;;15.49;86.64
75247;BME280;63844;50.042;19.224;2023-09-12T01:05:41;100290.36;;;15.48;86.60
75247;BME280;63844;50.042;19.224;2023-09-12T01:07:18;100287.71;;;15.45;86.87
75247;BME280;63844;50.042;19.224;2023-09-12T01:08:55;100292.45;;;15.43;86.76
75247;BME280;63844;50.042;19.224;2023-09-12T01:10:31;100290.99;;;15.41;86.79
75247;BME280;63844;50.042;19.224;2023-09-12T01:12:06;100287.92;;;15.38;86.69
75247;BME280;63844;50.042;19.224;2023-09-12T01:13:43;100290.88;;;15.38;86.71
75247;BME280;63844;50.042;19.224;2023-09-12T01:15:19;100292.02;;;15.36;86.91
75247;BME280;63844;50.042;19.224;2023-09-12T01:16:54;100289.30;;;15.34;86.84
75247;BME280;63844;50.042;19.224;2023-09-12T01:18:32;100290.54;;;15.32;87.02
75247;BME280;63844;50.042;19.224;2023-09-12T01:20:16;100291.20;;;15.32;86.62
75247;BME280;63844;50.042;19.224;2023-09-12T01:28:49;100289.68;;;15.17;87.15
75247;BME280;63844;50.042;19.224;2023-09-12T01:30:35;100287.15;;;15.15;86.78
75247;BME280;63844;50.042;19.224;2023-09-12T01:32:13;100288.73;;;15.13;86.70
75247;BME280;63844;50.042;19.224;2023-09-12T01:33:55;100286.97;;;15.13;86.89
75247;BME280;63844;50.042;19.224;2023-09-12T01:35:31;100289.26;;;15.10;86.94
75247;BME280;63844;50.042;19.224;2023-09-12T01:37:07;100289.02;;;15.08;86.99
75247;BME280;63844;50.042;19.224;2023-09-12T01:38:44;100289.45;;;15.07;87.08
75247;BME280;63844;50.042;19.224;2023-09-12T01:40:27;100290.05;;;15.06;87.00
75247;BME280;63844;50.042;19.224;2023-09-12T01:42:10;100286.92;;;15.04;87.19
75247;BME280;63844;50.042;19.224;2023-09-12T01:43:48;100289.02;;;15.02;87.18
75247;BME280;63844;50.042;19.224;2023-09-12T01:45:26;100290.05;;;15.00;87.18
75247;BME280;63844;50.042;19.224;2023-09-12T01:47:04;100290.87;;;14.98;87.29
75247;BME280;63844;50.042;19.224;2023-09-12T01:48:41;100288.61;;;14.97;87.35
75247;BME280;63844;50.042;19.224;2023-09-12T01:50:19;100287.44;;;14.96;87.35
75247;BME280;63844;50.042;19.224;2023-09-12T01:51:56;100289.02;;;14.94;87.41
75247;BME280;63844;50.042;19.224;2023-09-12T01:53:34;100287.08;;;14.93;87.51
75247;BME280;63844;50.042;19.224;2023-09-12T01:55:11;100288.64;;;14.91;87.54
75247;BME280;63844;50.042;19.224;2023-09-12T01:56:47;100287.32;;;14.90;87.79
75247;BME280;63844;50.042;19.224;2023-09-12T01:58:25;100286.85;;;14.89;87.86
75247;BME280;63844;50.042;19.224;2023-09-12T02:00:02;100290.27;;;14.88;87.92
75247;BME280;63844;50.042;19.224;2023-09-12T02:01:38;100287.94;;;14.89;87.68
75247;BME280;63844;50.042;19.224;2023-09-12T02:03:13;100289.65;;;14.90;87.55
75247;BME280;63844;50.042;19.224;2023-09-12T02:05:19;100287.50;;;14.90;87.80
75247;BME280;63844;50.042;19.224;2023-09-12T02:06:56;100290.11;;;14.88;88.11
75247;BME280;63844;50.042;19.224;2023-09-12T02:08:33;100287.98;;;14.88;87.77
75247;BME280;63844;50.042;19.224;2023-09-12T02:10:08;100288.25;;;14.87;87.57
75247;BME280;63844;50.042;19.224;2023-09-12T02:11:46;100290.65;;;14.85;87.90
75247;BME280;63844;50.042;19.224;2023-09-12T02:13:21;100289.31;;;14.84;87.85
75247;BME280;63844;50.042;19.224;2023-09-12T02:14:57;100287.93;;;14.83;87.90
75247;BME280;63844;50.042;19.224;2023-09-12T02:16:36;100287.83;;;14.82;88.40
75247;BME280;63844;50.042;19.224;2023-09-12T02:18:13;100285.02;;;14.78;88.45
75247;BME280;63844;50.042;19.224;2023-09-12T02:19:49;100286.96;;;14.76;88.63
75247;BME280;63844;50.042;19.224;2023-09-12T02:21:34;100282.98;;;14.74;88.26
75247;BME280;63844;50.042;19.224;2023-09-12T02:23:13;100286.38;;;14.74;88.36
75247;BME280;63844;50.042;19.224;2023-09-12T02:24:49;100283.69;;;14.74;88.37
75247;BME280;63844;50.042;19.224;2023-09-12T02:26:25;100285.09;;;14.75;88.45
75247;BME280;63844;50.042;19.224;2023-09-12T02:28:04;100285.11;;;14.74;88.67
75247;BME280;63844;50.042;19.224;2023-09-12T02:29:42;100280.08;;;14.72;88.47
75247;BME280;63844;50.042;19.224;2023-09-12T02:31:18;100282.11;;;14.71;88.43
75247;BME280;63844;50.042;19.224;2023-09-12T02:32:54;100286.44;;;14.70;88.57
75247;BME280;63844;50.042;19.224;2023-09-12T02:34:29;100285.14;;;14.68;88.68
75247;BME280;63844;50.042;19.224;2023-09-12T02:36:05;100286.58;;;14.68;88.72
75247;BME280;63844;50.042;19.224;2023-09-12T02:37:41;100289.37;;;14.69;88.65
75247;BME280;63844;50.042;19.224;2023-09-12T02:39:17;100287.00;;;14.70;88.79
75247;BME280;63844;50.042;19.224;2023-09-12T02:40:54;100283.97;;;14.67;89.28
75247;BME280;63844;50.042;19.224;2023-09-12T02:42:32;100285.54;;;14.64;88.72
75247;BME280;63844;50.042;19.224;2023-09-12T02:44:09;100284.58;;;14.63;88.50
75247;BME280;63844;50.042;19.224;2023-09-12T02:45:44;100284.38;;;14.63;88.44
75247;BME280;63844;50.042;19.224;2023-09-12T02:47:20;100282.50;;;14.62;88.68
75247;BME280;63844;50.042;19.224;2023-09-12T02:48:56;100285.58;;;14.61;89.00
75247;BME280;63844;50.042;19.224;2023-09-12T02:50:33;100285.09;;;14.60;89.02
75247;BME280;63844;50.042;19.224;2023-09-12T02:52:11;100285.71;;;14.58;89.07
75247;BME280;63844;50.042;19.224;2023-09-12T02:53:46;100284.92;;;14.57;88.85
75247;BME280;63844;50.042;19.224;2023-09-12T02:55:22;100283.09;;;14.55;89.04
75247;BME280;63844;50.042;19.224;2023-09-12T02:56:58;100285.05;;;14.52;89.33
75247;BME280;63844;50.042;19.224;2023-09-12T02:59:06;100286.07;;;14.49;89.23
75247;BME280;63844;50.042;19.224;2023-09-12T03:00:45;100284.27;;;14.47;89.50
75247;BME280;63844;50.042;19.224;2023-09-12T03:02:25;100283.98;;;14.46;89.23
75247;BME280;63844;50.042;19.224;2023-09-12T03:04:03;100286.30;;;14.46;89.10
75247;BME280;63844;50.042;19.224;2023-09-12T03:05:40;100282.17;;;14.46;89.40
75247;BME280;63844;50.042;19.224;2023-09-12T03:07:16;100283.79;;;14.46;89.57
75247;BME280;63844;50.042;19.224;2023-09-12T03:08:51;100283.13;;;14.45;89.49
75247;BME280;63844;50.042;19.224;2023-09-12T03:10:27;100281.64;;;14.43;89.44
75247;BME280;63844;50.042;19.224;2023-09-12T03:12:05;100280.38;;;14.43;89.56
75247;BME280;63844;50.042;19.224;2023-09-12T03:13:41;100279.88;;;14.43;89.48
75247;BME280;63844;50.042;19.224;2023-09-12T03:15:18;100280.57;;;14.43;89.48
75247;BME280;63844;50.042;19.224;2023-09-12T03:16:53;100280.40;;;14.43;89.56
75247;BME280;63844;50.042;19.224;2023-09-12T03:18:31;100282.63;;;14.42;90.14
75247;BME280;63844;50.042;19.224;2023-09-12T03:20:06;100286.94;;;14.41;89.67
75247;BME280;63844;50.042;19.224;2023-09-12T03:21:44;100284.48;;;14.40;89.40
75247;BME280;63844;50.042;19.224;2023-09-12T03:23:20;100285.34;;;14.41;89.85
75247;BME280;63844;50.042;19.224;2023-09-12T03:24:55;100285.34;;;14.41;89.60
75247;BME280;63844;50.042;19.224;2023-09-12T03:26:34;100284.58;;;14.39;89.48
75247;BME280;63844;50.042;19.224;2023-09-12T03:28:10;100283.13;;;14.36;89.77
75247;BME280;63844;50.042;19.224;2023-09-12T03:29:48;100278.89;;;14.33;90.02
75247;BME280;63844;50.042;19.224;2023-09-12T03:31:24;100283.36;;;14.32;90.07
75247;BME280;63844;50.042;19.224;2023-09-12T03:33:01;100286.34;;;14.30;89.97
75247;BME280;63844;50.042;19.224;2023-09-12T03:34:36;100287.42;;;14.30;89.83
75247;BME280;63844;50.042;19.224;2023-09-12T03:36:12;100290.42;;;14.31;89.98
75247;BME280;63844;50.042;19.224;2023-09-12T03:37:48;100291.31;;;14.30;89.92
75247;BME280;63844;50.042;19.224;2023-09-12T03:39:23;100293.95;;;14.31;90.06
75247;BME280;63844;50.042;19.224;2023-09-12T03:41:00;100294.39;;;14.30;90.26
75247;BME280;63844;50.042;19.224;2023-09-12T03:42:36;100294.18;;;14.30;90.27
75247;BME280;63844;50.042;19.224;2023-09-12T03:44:11;100298.00;;;14.29;90.13
75247;BME280;63844;50.042;19.224;2023-09-12T03:45:47;100298.29;;;14.27;90.62
75247;BME280;63844;50.042;19.224;2023-09-12T03:47:24;100297.26;;;14.26;90.21
75247;BME280;63844;50.042;19.224;2023-09-12T03:49:00;100297.49;;;14.26;90.07
75247;BME280;63844;50.042;19.224;2023-09-12T03:50:35;100300.77;;;14.25;89.96
75247;BME280;63844;50.042;19.224;2023-09-12T03:52:11;100304.52;;;14.24;89.78
75247;BME280;63844;50.042;19.224;2023-09-12T03:53:47;100303.48;;;14.24;89.91
75247;BME280;63844;50.042;19.224;2023-09-12T03:55:25;100304.11;;;14.25;89.99
75247;BME280;63844;50.042;19.224;2023-09-12T03:57:01;100305.02;;;14.25;90.07
75247;BME280;63844;50.042;19.224;2023-09-12T03:58:36;100300.23;;;14.25;90.15
75247;BME280;63844;50.042;19.224;2023-09-12T04:00:12;100300.98;;;14.24;90.01
75247;BME280;63844;50.042;19.224;2023-09-12T04:01:48;100302.62;;;14.23;90.24
75247;BME280;63844;50.042;19.224;2023-09-12T04:03:24;100303.55;;;14.23;90.08
75247;BME280;63844;50.042;19.224;2023-09-12T04:05:00;100306.65;;;14.22;90.30
75247;BME280;63844;50.042;19.224;2023-09-12T04:06:35;100307.31;;;14.23;90.21
75247;BME280;63844;50.042;19.224;2023-09-12T04:08:11;100308.19;;;14.23;90.30
75247;BME280;63844;50.042;19.224;2023-09-12T04:09:46;100305.27;;;14.24;90.39
75247;BME280;63844;50.042;19.224;2023-09-12T04:11:22;100308.81;;;14.24;90.30
75247;BME280;63844;50.042;19.224;2023-09-12T04:12:58;100309.52;;;14.24;90.29
75247;BME280;63844;50.042;19.224;2023-09-12T04:14:33;100304.19;;;14.24;90.22
75247;BME280;63844;50.042;19.224;2023-09-12T04:16:08;100303.61;;;14.25;90.15
75247;BME280;63844;50.042;19.224;2023-09-12T04:17:44;100300.46;;;14.26;90.06
75247;BME280;63844;50.042;19.224;2023-09-12T04:19:19;100302.42;;;14.27;90.21
75247;BME280;63844;50.042;19.224;2023-09-12T04:20:54;100303.09;;;14.27;90.34
75247;BME280;63844;50.042;19.224;2023-09-12T04:22:33;100301.94;;;14.29;90.51
75247;BME280;63844;50.042;19.224;2023-09-12T04:24:08;100298.69;;;14.30;90.33
75247;BME280;63844;50.042;19.224;2023-09-12T04:25:46;100301.21;;;14.32;90.19
75247;BME280;63844;50.042;19.224;2023-09-12T04:27:22;100301.28;;;14.34;90.36
75247;BME280;63844;50.042;19.224;2023-09-12T04:28:58;100304.38;;;14.35;90.55
75247;BME280;63844;50.042;19.224;2023-09-12T04:30:33;100303.85;;;14.38;90.29
75247;BME280;63844;50.042;19.224;2023-09-12T04:32:10;100305.27;;;14.41;90.19
75247;BME280;63844;50.042;19.224;2023-09-12T04:33:46;100305.80;;;14.44;90.25
75247;BME280;63844;50.042;19.224;2023-09-12T04:35:21;100307.60;;;14.47;90.28
75247;BME280;63844;50.042;19.224;2023-09-12T04:36:57;100307.04;;;14.50;90.40
75247;BME280;63844;50.042;19.224;2023-09-12T04:38:33;100308.98;;;14.54;90.23
75247;BME280;63844;50.042;19.224;2023-09-12T04:40:08;100309.50;;;14.57;90.30
75247;BME280;63844;50.042;19.224;2023-09-12T04:41:44;100308.98;;;14.59;90.49
75247;BME280;63844;50.042;19.224;2023-09-12T04:43:19;100309.17;;;14.63;90.44
75247;BME280;63844;50.042;19.224;2023-09-12T04:44:54;100311.20;;;14.67;90.44
75247;BME280;63844;50.042;19.224;2023-09-12T04:46:31;100311.67;;;14.71;90.36
75247;BME280;63844;50.042;19.224;2023-09-12T04:48:07;100309.52;;;14.77;90.42
75247;BME280;63844;50.042;19.224;2023-09-12T04:49:44;100307.89;;;14.83;90.28
75247;BME280;63844;50.042;19.224;2023-09-12T04:51:20;100312.35;;;14.89;90.23
75247;BME280;63844;50.042;19.224;2023-09-12T04:52:55;100308.74;;;14.95;90.25
75247;BME280;63844;50.042;19.224;2023-09-12T04:54:31;100310.35;;;15.00;90.19
75247;BME280;63844;50.042;19.224;2023-09-12T04:56:06;100308.51;;;15.07;90.10
75247;BME280;63844;50.042;19.224;2023-09-12T04:57:52;100308.05;;;15.14;90.16
75247;BME280;63844;50.042;19.224;2023-09-12T04:59:58;100310.80;;;15.22;90.37
75247;BME280;63844;50.042;19.224;2023-09-12T05:01:46;100311.77;;;15.29;90.50
75247;BME280;63844;50.042;19.224;2023-09-12T05:03:35;100314.88;;;15.36;90.37
75247;BME280;63844;50.042;19.224;2023-09-12T05:05:46;100310.04;;;15.44;90.54
75247;BME280;63844;50.042;19.224;2023-09-12T05:07:36;100313.00;;;15.51;90.45
75247;BME280;63844;50.042;19.224;2023-09-12T05:09:20;100313.31;;;15.57;90.21
75247;BME280;63844;50.042;19.224;2023-09-12T05:11:06;100315.57;;;15.64;90.17
75247;BME280;63844;50.042;19.224;2023-09-12T05:12:53;100316.10;;;15.72;90.05
75247;BME280;63844;50.042;19.224;2023-09-12T05:14:58;100315.81;;;15.79;89.99
75247;BME280;63844;50.042;19.224;2023-09-12T05:17:05;100316.17;;;15.90;90.11
75247;BME280;63844;50.042;19.224;2023-09-12T05:19:06;100320.66;;;16.00;90.15
75247;BME280;63844;50.042;19.224;2023-09-12T07:49:22;100325.48;;;27.05;57.67
75247;BME280;63844;50.042;19.224;2023-09-12T07:51:11;100323.55;;;27.35;56.04
75247;BME280;63844;50.042;19.224;2023-09-12T07:52:48;100324.59;;;27.49;57.15
75247;BME280;63844;50.042;19.224;2023-09-12T07:54:26;100325.51;;;27.54;55.34
75247;BME280;63844;50.042;19.224;2023-09-12T07:56:04;100324.19;;;27.68;54.06
75247;BME280;63844;50.042;19.224;2023-09-12T07:57:41;100324.59;;;27.90;54.33
75247;BME280;63844;50.042;19.224;2023-09-12T07:59:20;100325.45;;;28.26;54.83
75247;BME280;63844;50.042;19.224;2023-09-12T08:00:56;100323.44;;;28.85;56.22
75247;BME280;63844;50.042;19.224;2023-09-12T08:02:33;100314.98;;;29.61;52.52
75247;BME280;63844;50.042;19.224;2023-09-12T08:04:09;100316.30;;;30.44;50.80
75247;BME280;63844;50.042;19.224;2023-09-12T08:05:56;100314.29;;;31.34;48.32
75247;BME280;63844;50.042;19.224;2023-09-12T08:07:34;100314.10;;;32.35;46.74
75247;BME280;63844;50.042;19.224;2023-09-12T08:09:11;100306.98;;;32.81;43.10
75247;BME280;63844;50.042;19.224;2023-09-12T08:10:47;100311.05;;;32.99;43.98
75247;BME280;63844;50.042;19.224;2023-09-12T08:12:26;100306.81;;;33.71;41.75
75247;BME280;63844;50.042;19.224;2023-09-12T08:14:04;100304.11;;;34.78;40.58
75247;BME280;63844;50.042;19.224;2023-09-12T08:15:40;100304.16;;;35.52;38.18
75247;BME280;63844;50.042;19.224;2023-09-12T08:17:17;100301.35;;;36.18;37.74
75247;BME280;63844;50.042;19.224;2023-09-12T08:18:54;100304.46;;;37.12;36.43
75247;BME280;63844;50.042;19.224;2023-09-12T08:20:31;100299.65;;;37.71;33.30
75247;BME280;63844;50.042;19.224;2023-09-12T08:22:09;100295.24;;;38.25;32.42
75247;BME280;63844;50.042;19.224;2023-09-12T08:23:45;100297.91;;;38.76;31.78
75247;BME280;63844;50.042;19.224;2023-09-12T08:25:27;100298.80;;;39.06;30.06
75247;BME280;63844;50.042;19.224;2023-09-12T08:27:05;100299.09;;;39.21;30.18
75247;BME280;63844;50.042;19.224;2023-09-12T08:28:41;100295.22;;;38.90;30.46
75247;BME280;63844;50.042;19.224;2023-09-12T08:30:21;100299.27;;;38.52;30.81
75247;BME280;63844;50.042;19.224;2023-09-12T08:31:59;100299.40;;;38.76;31.09
75247;BME280;63844;50.042;19.224;2023-09-12T08:33:36;100295.52;;;39.24;31.02
75247;BME280;63844;50.042;19.224;2023-09-12T08:35:14;100294.79;;;39.60;29.91
75247;BME280;63844;50.042;19.224;2023-09-12T08:36:51;100295.29;;;39.69;28.63
75247;BME280;63844;50.042;19.224;2023-09-12T08:38:27;100298.95;;;39.98;29.03
75247;BME280;63844;50.042;19.224;2023-09-12T08:40:04;100295.67;;;40.35;28.56
75247;BME280;63844;50.042;19.224;2023-09-12T08:41:47;100300.60;;;40.62;28.02
75247;BME280;63844;50.042;19.224;2023-09-12T08:43:29;100297.66;;;40.79;26.98
75247;BME280;63844;50.042;19.224;2023-09-12T08:45:25;100292.65;;;41.10;27.72
75247;BME280;63844;50.042;19.224;2023-09-12T08:47:04;100297.64;;;41.28;27.27
75247;BME280;63844;50.042;19.224;2023-09-12T08:48:43;100295.31;;;41.61;27.79
75247;BME280;63844;50.042;19.224;2023-09-12T08:50:23;100293.05;;;41.90;26.84
75247;BME280;63844;50.042;19.224;2023-09-12T08:52:10;100293.29;;;41.98;26.83
75247;BME280;63844;50.042;19.224;2023-09-12T08:53:47;100291.44;;;42.07;26.47
75247;BME280;63844;50.042;19.224;2023-09-12T08:55:29;100290.11;;;42.13;25.75
75247;BME280;63844;50.042;19.224;2023-09-12T08:57:18;100288.77;;;42.13;25.72
75247;BME280;63844;50.042;19.224;2023-09-12T08:59:01;100290.77;;;41.60;26.24
75247;BME280;63844;50.042;19.224;2023-09-12T09:00:39;100294.34;;;40.83;28.18
75247;BME280;63844;50.042;19.224;2023-09-12T09:02:54;100290.55;;;40.34;28.10
75247;BME280;63844;50.042;19.224;2023-09-12T09:07:18;100285.95;;;39.74;29.25
75247;BME280;63844;50.042;19.224;2023-09-12T09:09:23;100284.50;;;39.83;28.97
75247;BME280;63844;50.042;19.224;2023-09-12T09:11:01;100285.16;;;39.88;28.61
75247;BME280;63844;50.042;19.224;2023-09-12T09:12:40;100284.80;;;40.04;28.18
75247;BME280;63844;50.042;19.224;2023-09-12T09:14:18;100282.59;;;39.83;28.43
75247;BME280;63844;50.042;19.224;2023-09-12T09:16:28;100281.27;;;39.39;29.48
75247;BME280;63844;50.042;19.224;2023-09-12T09:18:05;100283.30;;;39.02;28.53
75247;BME280;63844;50.042;19.224;2023-09-12T09:19:41;100281.98;;;39.21;29.20
75247;BME280;63844;50.042;19.224;2023-09-12T09:21:23;100279.72;;;39.39;28.99
75247;BME280;63844;50.042;19.224;2023-09-12T09:23:05;100279.67;;;39.49;28.62
75247;BME280;63844;50.042;19.224;2023-09-12T09:24:42;100278.35;;;39.36;29.52
75247;BME280;63844;50.042;19.224;2023-09-12T09:26:19;100277.73;;;39.15;29.60
75247;BME280;63844;50.042;19.224;2023-09-12T09:27:57;100276.70;;;38.91;29.37
75247;BME280;63844;50.042;19.224;2023-09-12T09:29:46;100279.04;;;38.58;29.82
75247;BME280;63844;50.042;19.224;2023-09-12T09:31:22;100278.03;;;38.24;31.13
75247;BME280;63844;50.042;19.224;2023-09-12T09:33:02;100278.04;;;37.93;30.30
75247;BME280;63844;50.042;19.224;2023-09-12T09:34:39;100277.55;;;37.56;30.22
75247;BME280;63844;50.042;19.224;2023-09-12T09:36:20;100280.32;;;37.18;31.76
75247;BME280;63844;50.042;19.224;2023-09-12T09:37:56;100281.30;;;36.85;32.86
75247;BME280;63844;50.042;19.224;2023-09-12T09:39:35;100282.83;;;36.55;32.81
75247;BME280;63844;50.042;19.224;2023-09-12T09:41:11;100283.02;;;36.26;33.01
75247;BME280;63844;50.042;19.224;2023-09-12T09:42:53;100282.15;;;35.86;33.38
75247;BME280;63844;50.042;19.224;2023-09-12T09:44:30;100282.34;;;35.58;33.77
75247;BME280;63844;50.042;19.224;2023-09-12T09:46:07;100280.63;;;35.35;33.97
75247;BME280;63844;50.042;19.224;2023-09-12T09:47:44;100278.96;;;35.12;34.57
75247;BME280;63844;50.042;19.224;2023-09-12T09:49:22;100277.50;;;34.86;34.68
75247;BME280;63844;50.042;19.224;2023-09-12T09:51:04;100276.63;;;34.68;35.21
75247;BME280;63844;50.042;19.224;2023-09-12T09:52:42;100278.63;;;34.48;35.91
75247;BME280;63844;50.042;19.224;2023-09-12T09:54:23;100281.34;;;34.29;35.94
75247;BME280;63844;50.042;19.224;2023-09-12T09:56:14;100279.36;;;34.12;35.55
75247;BME280;63844;50.042;19.224;2023-09-12T09:57:51;100279.91;;;33.88;35.97
75247;BME280;63844;50.042;19.224;2023-09-12T09:59:30;100280.69;;;33.70;36.32
75247;BME280;63844;50.042;19.224;2023-09-12T10:01:08;100277.22;;;33.58;35.66
75247;BME280;63844;50.042;19.224;2023-09-12T10:02:49;100278.30;;;33.44;35.91
75247;BME280;63844;50.042;19.224;2023-09-12T10:04:28;100273.98;;;33.27;35.65
75247;BME280;63844;50.042;19.224;2023-09-12T10:06:05;100273.60;;;33.11;36.74
75247;BME280;63844;50.042;19.224;2023-09-12T10:07:47;100274.91;;;33.05;37.08
75247;BME280;63844;50.042;19.224;2023-09-12T10:09:28;100273.36;;;33.00;37.80
75247;BME280;63844;50.042;19.224;2023-09-12T10:11:06;100273.69;;;32.95;38.08
75247;BME280;63844;50.042;19.224;2023-09-12T10:12:51;100274.86;;;32.81;37.81
75247;BME280;63844;50.042;19.224;2023-09-12T10:14:30;100273.41;;;32.64;38.20
75247;BME280;63844;50.042;19.224;2023-09-12T10:16:08;100271.40;;;32.55;38.67
75247;BME280;63844;50.042;19.224;2023-09-12T10:17:47;100271.61;;;32.58;38.64
75247;BME280;63844;50.042;19.224;2023-09-12T10:19:37;100271.27;;;32.60;38.29
75247;BME280;63844;50.042;19.224;2023-09-12T10:21:21;100270.04;;;32.41;37.83
75247;BME280;63844;50.042;19.224;2023-09-12T10:23:11;100264.84;;;32.31;38.10
75247;BME280;63844;50.042;19.224;2023-09-12T10:25:02;100266.98;;;32.37;38.00
75247;BME280;63844;50.042;19.224;2023-09-12T10:26:55;100266.63;;;32.51;38.04
75247;BME280;63844;50.042;19.224;2023-09-12T10:28:32;100269.23;;;32.59;38.06
75247;BME280;63844;50.042;19.224;2023-09-12T10:33:58;100261.99;;;33.01;37.15
75247;BME280;63844;50.042;19.224;2023-09-12T10:42:27;100262.59;;;32.60;36.37
75247;BME280;63844;50.042;19.224;2023-09-12T10:44:09;100262.63;;;32.65;36.62
75247;BME280;63844;50.042;19.224;2023-09-12T10:45:45;100263.45;;;32.75;37.01
75247;BME280;63844;50.042;19.224;2023-09-12T10:47:25;100255.64;;;32.82;36.48
75247;BME280;63844;50.042;19.224;2023-09-12T10:51:21;100252.36;;;32.80;35.11
75247;BME280;63844;50.042;19.224;2023-09-12T10:53:19;100255.73;;;32.83;36.09
75247;BME280;63844;50.042;19.224;2023-09-12T10:55:04;100250.23;;;32.82;34.86
75247;BME280;63844;50.042;19.224;2023-09-12T10:56:39;100249.08;;;32.70;35.46
75247;BME280;63844;50.042;19.224;2023-09-12T10:58:16;100249.47;;;32.62;35.89
75247;BME280;63844;50.042;19.224;2023-09-12T11:01:50;100253.17;;;32.56;36.69
75247;BME280;63844;50.042;19.224;2023-09-12T11:05:06;100251.52;;;32.44;36.83
75247;BME280;63844;50.042;19.224;2023-09-12T11:06:47;100253.33;;;32.27;37.20
75247;BME280;63844;50.042;19.224;2023-09-12T11:08:27;100252.57;;;32.21;37.69
75247;BME280;63844;50.042;19.224;2023-09-12T11:10:42;100252.70;;;32.26;37.84
75247;BME280;63844;50.042;19.224;2023-09-12T11:12:36;100251.42;;;32.27;36.63
75247;BME280;63844;50.042;19.224;2023-09-12T11:14:14;100247.59;;;32.19;36.22
75247;BME280;63844;50.042;19.224;2023-09-12T11:16:14;100244.13;;;32.20;36.40
75247;BME280;63844;50.042;19.224;2023-09-12T11:18:04;100247.54;;;32.26;36.97
75247;BME280;63844;50.042;19.224;2023-09-12T11:19:49;100247.37;;;32.27;36.80
75247;BME280;63844;50.042;19.224;2023-09-12T11:21:38;100249.86;;;32.28;35.96
75247;BME280;63844;50.042;19.224;2023-09-12T11:23:15;100244.84;;;32.20;35.82
75247;BME280;63844;50.042;19.224;2023-09-12T11:24:51;100242.14;;;32.07;35.02
75247;BME280;63844;50.042;19.224;2023-09-12T11:26:29;100244.38;;;31.96;35.44
75247;BME280;63844;50.042;19.224;2023-09-12T11:28:10;100242.05;;;31.98;35.69
75247;BME280;63844;50.042;19.224;2023-09-12T11:29:48;100243.35;;;31.99;35.54
75247;BME280;63844;50.042;19.224;2023-09-12T11:32:32;100244.39;;;32.08;36.18
75247;BME280;63844;50.042;19.224;2023-09-12T11:34:27;100244.16;;;32.15;36.32